createdAt,value
2023-01-02T00:00:46.824Z,99573.60
2023-01-02T00:03:33.155Z,99570.80
2023-01-02T00:06:10.999Z,99568.40
2023-01-02T00:08:47.993Z,99567.00
2023-01-02T00:11:24.593Z,99567.00
2023-01-02T00:14:01.339Z,99561.60
2023-01-02T00:16:37.730Z,99554.20
2023-01-02T00:19:14.111Z,99555.60
2023-01-02T00:21:50.543Z,99547.80
2023-01-02T00:24:27.016Z,99545.80
2023-01-02T00:27:03.554Z,99547.60
2023-01-02T00:29:40.083Z,99552.40
2023-01-02T00:32:17.391Z,99546.40
2023-01-02T00:34:53.804Z,99541.60
2023-01-02T00:37:30.271Z,99549.80
2023-01-02T00:40:13.937Z,99547.80
2023-01-02T00:42:50.337Z,99550.40
2023-01-02T00:45:26.957Z,99555.00
2023-01-02T00:48:03.309Z,99554.80
2023-01-02T00:50:39.636Z,99550.60
2023-01-02T00:53:16.345Z,99552.60
2023-01-02T00:55:52.937Z,99552.60
2023-01-02T00:58:29.318Z,99552.20
2023-01-02T01:01:06.350Z,99549.80
2023-01-02T01:03:43.544Z,99543.80
2023-01-02T01:06:21.622Z,99546.40
2023-01-02T01:08:57.919Z,99548.80
2023-01-02T01:11:36.396Z,99547.60
2023-01-02T01:14:12.590Z,99551.80
2023-01-02T01:16:48.922Z,99550.60
2023-01-02T01:19:25.416Z,99545.40
2023-01-02T01:22:02.175Z,99542.80
2023-01-02T01:24:38.475Z,99548.00
2023-01-02T01:27:14.844Z,99549.40
2023-01-02T01:29:51.494Z,99544.40
2023-01-02T01:32:29.614Z,99540.60
2023-01-02T01:35:06.880Z,99536.40
2023-01-02T01:37:45.220Z,99532.60
2023-01-02T01:40:21.780Z,99529.20
2023-01-02T01:43:01.021Z,99527.40
2023-01-02T01:45:37.953Z,99528.60
2023-01-02T01:48:18.916Z,99533.00
2023-01-02T01:50:55.636Z,99524.20
2023-01-02T01:53:32.924Z,99522.20
2023-01-02T01:56:14.560Z,99520.20
2023-01-02T01:58:51.182Z,99519.00
2023-01-02T02:01:27.780Z,99518.60
2023-01-02T02:04:04.486Z,99512.80
2023-01-02T02:06:41.914Z,99514.40
2023-01-02T02:09:25.065Z,99513.00
2023-01-02T02:12:02.344Z,99513.20
2023-01-02T02:14:38.999Z,99515.00
2023-01-02T02:17:31.252Z,99521.20
2023-01-02T02:20:40.083Z,99516.80
2023-01-02T02:23:59.684Z,99515.00
2023-01-02T02:28:00.059Z,99519.00
2023-01-02T02:30:40.360Z,99512.80
2023-01-02T02:33:42.578Z,99509.60
2023-01-02T02:36:32.276Z,99508.40
2023-01-02T02:39:23.467Z,99509.20
2023-01-02T02:42:14.256Z,99507.80
2023-01-02T02:45:03.634Z,99505.60
2023-01-02T02:47:52.844Z,99505.60
2023-01-02T02:50:41.010Z,99499.80
2023-01-02T02:53:25.672Z,99501.60
2023-01-02T02:56:06.996Z,99497.60
2023-01-02T02:58:47.350Z,99492.80
2023-01-02T03:01:30.908Z,99489.80
2023-01-02T03:04:17.273Z,99482.40
2023-01-02T03:07:22.989Z,99479.00
2023-01-02T03:10:21.539Z,99478.20
2023-01-02T03:13:14.577Z,99483.80
2023-01-02T03:16:09.686Z,99493.40
2023-01-02T03:18:57.914Z,99498.40
2023-01-02T03:21:44.515Z,99492.00
2023-01-02T03:24:25.694Z,99491.60
2023-01-02T03:27:07.719Z,99493.80
2023-01-02T03:29:48.170Z,99495.00
2023-01-02T03:32:34.878Z,99485.80
2023-01-02T03:35:20.101Z,99487.40
2023-01-02T03:38:01.145Z,99493.00
2023-01-02T03:40:45.381Z,99490.00
2023-01-02T03:43:29.476Z,99491.80
2023-01-02T03:46:20.354Z,99485.60
2023-01-02T03:49:06.755Z,99476.20
2023-01-02T03:51:43.221Z,99474.60
2023-01-02T03:54:21.672Z,99473.00
2023-01-02T03:57:06.156Z,99469.00
2023-01-02T03:59:54.429Z,99468.80
2023-01-02T04:02:40.606Z,99465.20
2023-01-02T04:05:29.108Z,99466.00
2023-01-02T04:08:12.544Z,99467.80
2023-01-02T04:10:58.251Z,99463.40
2023-01-02T04:13:43.118Z,99463.20
2023-01-02T04:16:25.855Z,99466.40
2023-01-02T04:19:12.093Z,99461.60
2023-01-02T04:21:53.332Z,99460.00
2023-01-02T04:24:35.308Z,99454.40
2023-01-02T04:27:15.075Z,99452.60
2023-01-02T04:29:51.414Z,99448.00
2023-01-02T04:32:38.770Z,99448.80
2023-01-02T04:35:21.696Z,99448.80
2023-01-02T04:37:58.020Z,99452.20
2023-01-02T04:40:38.832Z,99462.40
2023-01-02T04:43:22.817Z,99455.20
2023-01-02T04:45:59.356Z,99446.20
2023-01-02T04:48:35.758Z,99442.80
2023-01-02T04:51:12.530Z,99443.80
2023-01-02T04:53:51.998Z,99450.00
2023-01-02T04:56:28.385Z,99454.00
2023-01-02T04:59:04.717Z,99448.80
2023-01-02T05:01:41.111Z,99440.40
2023-01-02T05:04:17.671Z,99443.80
2023-01-02T05:06:53.931Z,99443.40
2023-01-02T05:09:30.196Z,99447.40
2023-01-02T05:12:07.148Z,99440.40
2023-01-02T05:14:43.615Z,99429.40
2023-01-02T05:17:20.079Z,99430.20
2023-01-02T05:19:56.455Z,99426.00
2023-01-02T05:22:55.833Z,99428.60
2023-01-02T05:25:35.425Z,99419.60
2023-01-02T05:28:11.838Z,99414.00
2023-01-02T05:30:49.833Z,99414.80
2023-01-02T05:33:26.511Z,99406.60
2023-01-02T05:36:02.897Z,99406.40
2023-01-02T05:38:40.912Z,99404.80
2023-01-02T05:41:17.770Z,99400.20
2023-01-02T05:43:55.995Z,99399.00
2023-01-02T05:46:32.595Z,99397.20
2023-01-02T05:49:11.178Z,99398.80
2023-01-02T05:51:47.557Z,99394.40
2023-01-02T05:54:24.008Z,99399.20
2023-01-02T05:57:00.565Z,99394.80
2023-01-02T05:59:36.911Z,99395.80
2023-01-02T06:02:13.287Z,99392.80
2023-01-02T06:04:49.672Z,99395.00
2023-01-02T06:07:26.068Z,99398.60
2023-01-02T06:10:02.445Z,99396.60
2023-01-02T06:12:38.973Z,99397.00
2023-01-02T06:15:16.815Z,99394.20
2023-01-02T06:17:53.090Z,99394.80
2023-01-02T06:20:29.597Z,99397.00
2023-01-02T06:23:05.881Z,99400.20
2023-01-02T06:25:42.330Z,99402.00
2023-01-02T06:28:18.561Z,99398.20
2023-01-02T06:30:59.952Z,99402.20
2023-01-02T06:33:37.323Z,99402.20
2023-01-02T06:36:17.522Z,99406.40
2023-01-02T06:38:53.900Z,99412.00
2023-01-02T06:41:30.530Z,99408.60
2023-01-02T06:44:07.020Z,99415.00
2023-01-02T06:46:43.449Z,99415.00
2023-01-02T06:49:19.755Z,99412.40
2023-01-02T06:51:56.675Z,99414.00
2023-01-02T06:54:33.421Z,99423.60
2023-01-02T06:57:09.892Z,99421.20
2023-01-02T06:59:46.094Z,99422.40
2023-01-02T07:02:22.619Z,99424.80
2023-01-02T07:04:59.279Z,99427.40
2023-01-02T07:07:35.614Z,99430.20
2023-01-02T07:10:13.650Z,99434.20
2023-01-02T07:12:50.089Z,99432.00
2023-01-02T07:15:26.689Z,99432.20
2023-01-02T07:18:03.354Z,99429.20
2023-01-02T07:20:39.949Z,99429.80
2023-01-02T07:23:16.170Z,99425.60
2023-01-02T07:25:59.592Z,99426.20
2023-01-02T07:28:37.162Z,99420.60
2023-01-02T07:31:17.893Z,99424.20
2023-01-02T07:33:54.844Z,99423.60
2023-01-02T07:36:31.535Z,99422.20
2023-01-02T07:39:08.351Z,99421.60
2023-01-02T07:41:45.389Z,99424.40
2023-01-02T07:44:25.036Z,99421.00
2023-01-02T07:47:01.392Z,99424.40
2023-01-02T07:49:37.940Z,99424.20
2023-01-02T07:52:16.509Z,99433.00
2023-01-02T07:54:52.939Z,99432.40
2023-01-02T07:57:32.286Z,99431.60
2023-01-02T08:00:12.451Z,99430.80
2023-01-02T08:02:50.191Z,99433.20
2023-01-02T08:05:27.221Z,99431.60
2023-01-02T08:08:03.740Z,99429.40
2023-01-02T08:10:41.007Z,99431.20
2023-01-02T08:13:17.687Z,99425.60
2023-01-02T08:15:54.317Z,99430.80
2023-01-02T08:18:30.584Z,99430.80
2023-01-02T08:21:08.247Z,99427.60
2023-01-02T08:23:44.740Z,99434.60
2023-01-02T08:26:22.851Z,99429.80
2023-01-02T08:29:00.595Z,99436.20
2023-01-02T08:31:41.892Z,99433.60
2023-01-02T08:34:20.653Z,99431.40
2023-01-02T08:36:57.014Z,99433.40
2023-01-02T08:39:33.350Z,99440.20
2023-01-02T08:42:11.384Z,99439.80
2023-01-02T08:44:47.678Z,99436.20
2023-01-02T08:47:24.318Z,99434.00
2023-01-02T08:50:00.527Z,99436.00
2023-01-02T08:52:37.117Z,99428.00
2023-01-02T08:55:15.132Z,99423.80
2023-01-02T08:57:51.591Z,99425.60
2023-01-02T09:00:28.220Z,99427.40
2023-01-02T09:03:04.919Z,99425.00
2023-01-02T09:05:41.754Z,99423.80
2023-01-02T09:08:18.216Z,99419.60
2023-01-02T09:10:54.475Z,99418.00
2023-01-02T09:13:30.901Z,99418.00
2023-01-02T09:16:08.642Z,99414.60
2023-01-02T09:18:45.192Z,99417.80
2023-01-02T09:21:21.976Z,99412.40
2023-01-02T09:23:59.605Z,99410.60
2023-01-02T09:26:38.171Z,99401.40
2023-01-02T09:29:15.331Z,99397.20
2023-01-02T09:31:52.139Z,99394.20
2023-01-02T09:34:28.630Z,99387.40
2023-01-02T09:37:05.178Z,99388.80
2023-01-02T09:39:42.206Z,99380.80
2023-01-02T09:42:21.607Z,99382.80
2023-01-02T09:45:08.461Z,99381.80
2023-01-02T09:47:49.387Z,99382.40
2023-01-02T09:50:33.232Z,99381.40
2023-01-02T09:53:11.465Z,99382.60
2023-01-02T09:55:56.355Z,99373.40
2023-01-02T09:58:51.792Z,99370.60
2023-01-02T10:01:37.856Z,99370.20
2023-01-02T10:04:33.494Z,99366.40
2023-01-02T10:07:22.002Z,99364.20
2023-01-02T10:10:08.633Z,99358.60
2023-01-02T10:13:06.574Z,99358.20
2023-01-02T10:15:49.667Z,99360.80
2023-01-02T10:18:34.233Z,99356.00
2023-01-02T10:21:19.647Z,99355.00
2023-01-02T10:24:02.777Z,99349.00
2023-01-02T10:26:47.246Z,99343.00
2023-01-02T10:29:32.067Z,99343.80
2023-01-02T10:32:16.930Z,99339.60
2023-01-02T10:35:12.192Z,99340.80
2023-01-02T10:37:48.506Z,99337.60
2023-01-02T10:40:26.327Z,99336.00
2023-01-02T10:43:04.199Z,99326.40
2023-01-02T10:45:41.114Z,99325.00
2023-01-02T10:48:18.316Z,99320.00
2023-01-02T10:51:02.242Z,99314.60
2023-01-02T10:53:40.589Z,99308.40
2023-01-02T10:56:23.304Z,99304.00
2023-01-02T10:59:00.700Z,99296.20
2023-01-02T11:02:01.658Z,99293.40
2023-01-02T11:04:45.477Z,99291.80
2023-01-02T11:07:33.593Z,99288.40
2023-01-02T11:10:28.219Z,99282.40
2023-01-02T11:13:12.998Z,99278.60
2023-01-02T11:16:02.145Z,99278.40
2023-01-02T11:18:40.380Z,99277.00
2023-01-02T11:21:25.276Z,99276.20
2023-01-02T11:24:12.711Z,99271.20
2023-01-02T11:26:51.215Z,99266.20
2023-01-02T11:29:37.242Z,99265.00
2023-01-02T11:32:29.144Z,99257.40
2023-01-02T11:35:04.909Z,99250.00
2023-01-02T11:37:47.342Z,99248.40
2023-01-02T11:40:33.803Z,99249.80
2023-01-02T11:43:31.681Z,99247.80
2023-01-02T11:46:10.874Z,99245.40
2023-01-02T11:48:48.228Z,99239.60
2023-01-02T11:51:26.725Z,99237.20
2023-01-02T11:54:11.032Z,99236.00
2023-01-02T11:56:50.674Z,99226.40
2023-01-02T11:59:34.089Z,99220.40
2023-01-02T12:02:21.448Z,99221.00
2023-01-02T12:04:58.056Z,99214.40
2023-01-02T12:07:48.027Z,99214.60
2023-01-02T12:10:52.440Z,99215.20
2023-01-02T12:13:56.075Z,99213.40
2023-01-02T12:16:51.839Z,99209.60
2023-01-02T12:20:13.605Z,99210.80
2023-01-02T12:23:29.172Z,99208.40
2023-01-02T12:26:15.700Z,99204.20
2023-01-02T12:29:47.975Z,99206.00
2023-01-02T12:33:10.652Z,99207.60
2023-01-02T12:36:17.364Z,99201.20
2023-01-02T12:39:31.674Z,99199.60
2023-01-02T12:42:30.498Z,99194.60
2023-01-02T12:45:16.918Z,99199.00
2023-01-02T12:48:24.305Z,99195.20
2023-01-02T12:51:17.745Z,99200.80
2023-01-02T12:54:18.770Z,99199.60
2023-01-02T12:57:22.079Z,99199.20
2023-01-02T13:00:40.637Z,99194.00
2023-01-02T13:03:58.412Z,99196.80
2023-01-02T13:06:50.386Z,99197.20
2023-01-02T13:09:39.573Z,99193.40
2023-01-02T13:12:20.496Z,99191.40
2023-01-02T13:15:03.515Z,99194.20
2023-01-02T13:18:02.146Z,99193.60
2023-01-02T13:20:54.560Z,99199.80
2023-01-02T13:23:39.839Z,99201.60
2023-01-02T13:26:20.383Z,99199.40
2023-01-02T13:29:20.852Z,99208.60
2023-01-02T13:31:59.500Z,99209.60
2023-01-02T13:34:41.028Z,99214.40
2023-01-02T13:37:24.033Z,99213.60
2023-01-02T13:40:05.496Z,99212.60
2023-01-02T13:43:00.853Z,99210.80
2023-01-02T13:45:46.711Z,99209.80
2023-01-02T13:48:34.728Z,99213.60
2023-01-02T13:51:23.130Z,99215.60
2023-01-02T13:53:59.638Z,99210.60
2023-01-02T13:56:55.964Z,99203.80
2023-01-02T13:59:50.860Z,99204.00
2023-01-02T14:02:27.586Z,99207.60
2023-01-02T14:05:41.559Z,99209.80
2023-01-02T14:08:33.010Z,99209.40
2023-01-02T14:11:21.150Z,99206.00
2023-01-02T14:13:59.578Z,99206.60
2023-01-02T14:17:03.271Z,99212.00
2023-01-02T14:19:40.153Z,99212.20
2023-01-02T14:22:21.020Z,99206.00
2023-01-02T14:25:06.331Z,99209.20
2023-01-02T14:27:49.402Z,99212.20
2023-01-02T14:30:37.697Z,99216.00
2023-01-02T14:33:26.474Z,99215.20
2023-01-02T14:36:10.122Z,99213.20
2023-01-02T14:38:59.067Z,99217.40
2023-01-02T14:42:44.852Z,99226.40
2023-01-02T14:45:28.324Z,99230.00
2023-01-02T14:48:15.587Z,99226.60
2023-01-02T14:50:54.513Z,99222.00
2023-01-02T14:53:39.499Z,99227.00
2023-01-02T14:56:23.005Z,99232.40
2023-01-02T14:59:05.686Z,99227.40
2023-01-02T15:01:47.311Z,99223.60
2023-01-02T15:04:39.172Z,99220.00
2023-01-02T15:07:32.053Z,99224.80
2023-01-02T15:10:15.905Z,99231.40
2023-01-02T15:13:07.803Z,99226.40
2023-01-02T15:15:49.712Z,99231.00
2023-01-02T15:18:30.512Z,99236.40
2023-01-02T15:21:14.504Z,99238.80
2023-01-02T15:23:51.606Z,99238.60
2023-01-02T15:26:37.123Z,99242.40
2023-01-02T15:29:30.631Z,99238.40
2023-01-02T15:32:17.929Z,99244.00
2023-01-02T15:35:09.065Z,99244.80
2023-01-02T15:37:51.585Z,99246.60
2023-01-02T15:40:35.407Z,99246.40
2023-01-02T15:43:35.951Z,99253.20
2023-01-02T15:46:13.523Z,99249.00
2023-01-02T15:48:51.112Z,99246.40
2023-01-02T15:51:40.260Z,99242.40
2023-01-02T15:54:20.739Z,99247.60
2023-01-02T15:57:12.647Z,99250.20
2023-01-02T15:59:50.131Z,99253.60
2023-01-02T16:02:46.369Z,99255.80
2023-01-02T16:05:24.041Z,99259.00
2023-01-02T16:08:02.162Z,99259.60
2023-01-02T16:10:38.396Z,99256.20
2023-01-02T16:13:41.492Z,99255.40
2023-01-02T16:16:20.225Z,99259.40
2023-01-02T16:19:03.282Z,99257.60
2023-01-02T16:21:40.657Z,99254.00
2023-01-02T16:24:25.575Z,99254.80
2023-01-02T16:27:02.559Z,99256.20
2023-01-02T16:29:44.403Z,99257.80
2023-01-02T16:32:31.659Z,99252.20
2023-01-02T16:35:25.595Z,99250.00
2023-01-02T16:38:04.927Z,99255.40
2023-01-02T16:41:03.028Z,99258.40
2023-01-02T16:43:43.601Z,99258.80
2023-01-02T16:46:20.534Z,99257.00
2023-01-02T16:49:03.081Z,99257.20
2023-01-02T16:51:45.173Z,99258.40
2023-01-02T16:54:22.869Z,99256.00
2023-01-02T16:56:59.321Z,99250.00
2023-01-02T16:59:36.219Z,99249.20
2023-01-02T17:02:16.941Z,99245.80
2023-01-02T17:04:53.360Z,99244.20
2023-01-02T17:07:29.818Z,99249.00
2023-01-02T17:10:07.149Z,99250.20
2023-01-02T17:12:43.981Z,99254.00
2023-01-02T17:15:21.314Z,99250.00
2023-01-02T17:17:57.837Z,99249.00
2023-01-02T17:20:34.957Z,99249.40
2023-01-02T17:23:12.009Z,99247.00
2023-01-02T17:25:48.856Z,99242.80
2023-01-02T17:28:25.480Z,99250.40
2023-01-02T17:31:01.849Z,99247.60
2023-01-02T17:33:38.110Z,99247.00
2023-01-02T17:36:15.094Z,99242.20
2023-01-02T17:38:52.146Z,99253.80
2023-01-02T17:41:29.240Z,99257.20
2023-01-02T17:44:05.944Z,99257.80
2023-01-02T17:47:15.371Z,99254.40
2023-01-02T17:49:39.815Z,99252.80
2023-01-02T17:52:16.625Z,99252.20
2023-01-02T17:54:56.757Z,99245.80
2023-01-02T17:57:35.425Z,99243.80
2023-01-02T18:00:18.235Z,99230.80
2023-01-02T18:02:55.948Z,99227.60
2023-01-02T18:05:37.870Z,99228.80
2023-01-02T18:08:17.421Z,99229.40
2023-01-02T18:10:54.214Z,99228.60
2023-01-02T18:13:34.248Z,99223.40
2023-01-02T18:16:21.326Z,99226.00
2023-01-02T18:18:58.109Z,99229.60
2023-01-02T18:21:37.146Z,99238.00
2023-01-02T18:24:26.519Z,99237.40
2023-01-02T18:27:19.854Z,99231.20
2023-01-02T18:30:08.502Z,99226.40
2023-01-02T18:32:48.663Z,99221.80
2023-01-02T18:35:55.983Z,99228.20
2023-01-02T18:38:39.539Z,99228.20
2023-01-02T18:41:25.331Z,99220.00
2023-01-02T18:44:19.439Z,99229.20
2023-01-02T18:47:05.228Z,99231.20
2023-01-02T18:49:46.356Z,99236.20
2023-01-02T18:52:31.945Z,99236.80
2023-01-02T18:55:26.591Z,99238.00
2023-01-02T18:58:23.622Z,99233.80
2023-01-02T19:01:01.617Z,99237.40
2023-01-02T19:03:38.928Z,99230.80
2023-01-02T19:06:26.400Z,99234.20
2023-01-02T19:09:19.127Z,99248.60
2023-01-02T19:12:37.599Z,99257.40
2023-01-02T19:15:40.882Z,99253.00
2023-01-02T19:18:36.333Z,99248.80
2023-01-02T19:21:28.419Z,99255.00
2023-01-02T19:24:18.537Z,99255.00
2023-01-02T19:26:58.317Z,99256.40
2023-01-02T19:29:38.495Z,99257.80
2023-01-02T19:32:34.937Z,99256.00
2023-01-02T19:36:01.300Z,99257.60
2023-01-02T19:38:39.008Z,99258.40
2023-01-02T19:41:15.322Z,99257.80
2023-01-02T19:43:52.184Z,99259.40
2023-01-02T19:46:28.768Z,99266.80
2023-01-02T19:49:05.328Z,99261.20
2023-01-02T19:51:41.857Z,99257.40
2023-01-02T19:54:18.387Z,99254.00
2023-01-02T19:56:55.386Z,99253.60
2023-01-02T19:59:37.236Z,99245.40
2023-01-02T20:02:19.171Z,99249.60
2023-01-02T20:04:56.542Z,99246.00
2023-01-02T20:07:34.731Z,99256.80
2023-01-02T20:10:12.993Z,99261.00
2023-01-02T20:12:50.220Z,99263.80
2023-01-02T20:15:29.133Z,99261.40
2023-01-02T20:18:08.741Z,99265.80
2023-01-02T20:20:46.185Z,99268.40
2023-01-02T20:23:22.637Z,99267.80
2023-01-02T20:25:59.232Z,99270.40
2023-01-02T20:28:37.863Z,99275.80
2023-01-02T20:31:14.839Z,99273.60
2023-01-02T20:33:52.523Z,99271.80
2023-01-02T20:36:29.194Z,99270.80
2023-01-02T20:39:05.907Z,99268.40
2023-01-02T20:41:42.649Z,99270.40
2023-01-02T20:44:19.804Z,99275.00
2023-01-02T20:46:56.473Z,99283.40
2023-01-02T20:49:33.120Z,99287.60
2023-01-02T20:52:10.775Z,99288.20
2023-01-02T20:54:47.231Z,99290.40
2023-01-02T20:57:23.804Z,99292.60
2023-01-02T21:00:00.521Z,99290.80
2023-01-02T21:02:37.224Z,99297.00
2023-01-02T21:05:15.521Z,99298.00
2023-01-02T21:07:53.254Z,99303.20
2023-01-02T21:10:29.718Z,99292.40
2023-01-02T21:13:11.197Z,99294.40
2023-01-02T21:15:52.214Z,99293.00
2023-01-02T21:18:32.224Z,99304.20
2023-01-02T21:21:12.841Z,99313.40
2023-01-02T21:23:51.111Z,99309.40
2023-01-02T21:26:27.774Z,99308.40
2023-01-02T21:29:04.462Z,99307.60
2023-01-02T21:31:40.946Z,99310.80
2023-01-02T21:34:17.612Z,99309.60
2023-01-02T21:36:54.161Z,99318.60
2023-01-02T21:39:30.411Z,99319.20
2023-01-02T21:42:19.444Z,99326.60
2023-01-02T21:44:56.963Z,99328.20
2023-01-02T21:47:34.042Z,99331.00
2023-01-02T21:50:14.809Z,99340.60
2023-01-02T21:52:52.333Z,99347.60
2023-01-02T21:55:30.451Z,99351.00
2023-01-02T21:58:14.582Z,99357.40
2023-01-02T22:00:51.298Z,99361.80
2023-01-02T22:03:27.772Z,99360.00
2023-01-02T22:06:04.243Z,99367.60
2023-01-02T22:08:40.749Z,99373.20
2023-01-02T22:11:37.640Z,99368.20
2023-01-02T22:14:14.102Z,99367.20
2023-01-02T22:16:50.566Z,99369.80
2023-01-02T22:19:28.263Z,99368.80
2023-01-02T22:22:05.040Z,99370.20
2023-01-02T22:24:44.663Z,99377.00
2023-01-02T22:27:24.623Z,99375.00
2023-01-02T22:30:23.321Z,99374.20
2023-01-02T22:33:00.138Z,99368.40
2023-01-02T22:35:36.950Z,99370.20
2023-01-02T22:38:13.250Z,99371.40
2023-01-02T22:40:49.738Z,99370.00
2023-01-02T22:43:27.037Z,99373.00
2023-01-02T22:46:08.364Z,99375.60
2023-01-02T22:48:46.788Z,99373.40
2023-01-02T22:51:57.626Z,99371.20
2023-01-02T22:54:27.075Z,99367.60
2023-01-02T22:57:03.297Z,99370.60
2023-01-02T22:59:42.211Z,99374.80
2023-01-02T23:02:23.061Z,99375.40
2023-01-02T23:04:59.990Z,99379.00
2023-01-02T23:07:36.616Z,99380.00
2023-01-02T23:10:14.472Z,99376.80
2023-01-02T23:12:50.850Z,99380.40
2023-01-02T23:15:28.804Z,99380.60
2023-01-02T23:18:23.432Z,99383.80
2023-01-02T23:21:08.168Z,99390.40
2023-01-02T23:23:44.656Z,99388.20
2023-01-02T23:26:23.850Z,99389.20
2023-01-02T23:29:08.823Z,99392.40
2023-01-02T23:31:50.334Z,99398.00
2023-01-02T23:34:30.365Z,99392.40
2023-01-02T23:37:06.986Z,99398.80
2023-01-02T23:39:43.508Z,99396.80
2023-01-02T23:42:19.896Z,99396.60
2023-01-02T23:45:02.994Z,99403.60
2023-01-02T23:47:39.775Z,99408.40
2023-01-02T23:50:16.953Z,99415.60
2023-01-02T23:52:53.534Z,99415.60
2023-01-02T23:55:30.663Z,99407.00
2023-01-02T23:58:07.094Z,99411.40
